Terminal Aerodrome Forecast
Issued by NWS Twin Cities, MN

Home | Current Version | Previous Version | Graphics & Text | Print | Product List | Glossary On
Versions: 1 2 3 4 5 6 7 8 9 10 11 12 13 14 15 16
000
FTUS43 KMPX 251451 AAA
TAFSTC
TAF AMD
KSTC 251451Z 2515/2612 VRB04KT 4SM -RA BR OVC007
     FM251800 26006KT P6SM OVC015
     FM252200 26009KT P6SM SCT015 OVC030
     FM260300 30005KT 4SM BR OVC015
     FM260600 36004KT 1SM BR OVC003=

USA.gov is the U.S. government's official web portal to all federal, state and local government web resources and services.